Deane, Kentucky
Current Conditions -  °F | °C
As of 5:15 AM on Sunday 23 Nov 2014 (Local Time) from KLNP Reporting Station
Clear Clear  
Wind Chill:   Ceiling: Unl
Heat Index:   Visibility: 10mi
Dew Point:   Wind: 10mph
Humidity: 62%   Direction: 150°SSE
Pressure: 30.14"   Gusts: NA
Location:  37.24°N, 82.78°W
Report Text: KLNP 231015Z AUTO 15009KT 10SM CLR 08/01 A3014 RMK AO2
Loading
Personal Weather Stations






























Interactive Weather Map New forecast layout! Learn more

10-Day Weather Forecast

Advertisements
Track Severe Weather on mobile